createdAt,value
2018-07-12T00:01:22.208Z,13.28
2018-07-12T00:03:49.408Z,13.20
2018-07-12T00:06:16.664Z,13.30
2018-07-12T00:08:43.878Z,13.40
2018-07-12T00:11:11.110Z,13.41
2018-07-12T00:13:38.310Z,13.53
2018-07-12T00:16:05.556Z,13.46
2018-07-12T00:18:32.750Z,13.62
2018-07-12T00:21:00.026Z,13.57
2018-07-12T00:23:27.292Z,13.49
2018-07-12T00:25:54.523Z,13.44
2018-07-12T00:28:21.718Z,13.55
2018-07-12T00:30:48.959Z,13.54
2018-07-12T00:33:16.173Z,13.58
2018-07-12T00:35:43.410Z,13.60
2018-07-12T00:38:10.603Z,13.61
2018-07-12T00:40:38.009Z,13.66
2018-07-12T00:43:05.221Z,13.70
2018-07-12T00:45:32.485Z,13.78
2018-07-12T00:47:59.673Z,13.80
2018-07-12T00:50:26.901Z,13.84
2018-07-12T00:52:54.096Z,13.93
2018-07-12T00:55:21.347Z,13.77
2018-07-12T00:57:48.539Z,13.69
2018-07-12T01:00:15.782Z,13.76
2018-07-12T01:02:42.978Z,13.74
2018-07-12T01:05:10.198Z,13.69
2018-07-12T01:07:37.402Z,13.70
2018-07-12T01:10:04.704Z,13.66
2018-07-12T01:12:31.903Z,13.64
2018-07-12T01:14:59.190Z,13.65
2018-07-12T01:17:26.526Z,13.69
2018-07-12T01:19:53.802Z,13.81
2018-07-12T01:22:20.999Z,13.78
2018-07-12T01:24:48.189Z,13.89
2018-07-12T01:27:15.433Z,13.90
2018-07-12T01:29:42.622Z,13.81
2018-07-12T01:32:09.863Z,13.84
2018-07-12T01:34:37.056Z,13.93
2018-07-12T01:37:04.314Z,13.88
2018-07-12T01:39:31.515Z,13.82
2018-07-12T01:41:58.735Z,13.85
2018-07-12T01:44:25.972Z,13.90
2018-07-12T01:46:53.207Z,14.00
2018-07-12T01:49:20.417Z,13.97
2018-07-12T01:51:47.667Z,13.99
2018-07-12T01:54:14.850Z,13.79
2018-07-12T01:56:42.074Z,13.70
2018-07-12T01:59:09.275Z,13.73
2018-07-12T02:01:36.653Z,13.77
2018-07-12T02:04:03.909Z,13.84
2018-07-12T02:06:31.139Z,13.81
2018-07-12T02:08:58.322Z,13.84
2018-07-12T02:11:25.746Z,13.80
2018-07-12T02:13:53.005Z,13.81
2018-07-12T02:16:20.236Z,13.87
2018-07-12T02:18:47.433Z,13.92
2018-07-12T02:21:14.667Z,13.88
2018-07-12T02:23:41.858Z,13.83
2018-07-12T02:26:09.103Z,13.87
2018-07-12T02:28:36.303Z,13.83
2018-07-12T02:31:03.558Z,13.90
2018-07-12T02:33:30.825Z,13.93
2018-07-12T02:35:58.095Z,13.91
2018-07-12T02:38:25.287Z,14.06
2018-07-12T02:40:52.548Z,14.13
2018-07-12T02:43:19.851Z,13.95
2018-07-12T02:45:47.062Z,13.90
2018-07-12T02:48:14.367Z,13.91
2018-07-12T02:50:41.568Z,13.81
2018-07-12T02:53:08.875Z,13.83
2018-07-12T02:55:36.088Z,13.75
2018-07-12T02:58:03.306Z,13.68
2018-07-12T03:00:30.503Z,13.75
2018-07-12T03:02:57.744Z,13.63
2018-07-12T03:05:24.935Z,13.61
2018-07-12T03:07:52.175Z,13.59
2018-07-12T03:10:19.378Z,13.60
2018-07-12T03:12:46.594Z,13.40
2018-07-12T03:15:13.806Z,13.44
2018-07-12T03:17:41.168Z,13.48
2018-07-12T03:20:08.380Z,13.54
2018-07-12T03:22:35.627Z,13.46
2018-07-12T03:25:02.825Z,13.44
2018-07-12T03:27:30.087Z,13.60
2018-07-12T03:29:57.282Z,13.59
2018-07-12T03:32:24.510Z,13.52
2018-07-12T03:34:51.695Z,13.43
2018-07-12T03:37:18.953Z,13.37
2018-07-12T03:39:46.165Z,13.47
2018-07-12T03:42:13.400Z,13.62
2018-07-12T03:44:40.657Z,13.56
2018-07-12T03:47:07.901Z,13.55
2018-07-12T03:49:35.095Z,13.68
2018-07-12T03:52:02.323Z,13.70
2018-07-12T03:54:29.525Z,13.65
2018-07-12T03:56:56.791Z,13.60
2018-07-12T03:59:23.988Z,13.62
2018-07-12T04:01:51.246Z,13.58
2018-07-12T04:04:18.509Z,13.62
2018-07-12T04:06:45.700Z,13.63
2018-07-12T04:09:12.958Z,13.53
2018-07-12T04:11:40.216Z,13.48
2018-07-12T04:14:07.447Z,13.44
2018-07-12T04:16:34.664Z,13.35
2018-07-12T04:19:01.913Z,13.46
2018-07-12T04:21:29.145Z,13.58
2018-07-12T04:23:56.398Z,13.68
2018-07-12T04:26:23.590Z,13.78
2018-07-12T04:28:50.828Z,13.75
2018-07-12T04:31:18.022Z,13.60
2018-07-12T04:33:45.260Z,13.57
2018-07-12T04:36:12.476Z,13.43
2018-07-12T04:38:39.743Z,13.30
2018-07-12T04:41:06.935Z,13.41
2018-07-12T04:43:34.171Z,13.40
2018-07-12T04:46:01.388Z,13.39
2018-07-12T04:48:28.631Z,13.54
2018-07-12T04:50:55.826Z,13.58
2018-07-12T04:53:23.356Z,13.59
2018-07-12T04:55:50.558Z,13.69
2018-07-12T04:58:17.884Z,13.65
2018-07-12T05:00:45.047Z,13.63
2018-07-12T05:03:12.276Z,13.80
2018-07-12T05:05:39.488Z,13.83
2018-07-12T05:08:09.809Z,13.83
2018-07-12T05:10:37.833Z,13.94
2018-07-12T05:13:05.119Z,14.04
2018-07-12T05:15:32.418Z,14.18
2018-07-12T05:17:59.655Z,14.18
2018-07-12T05:20:26.910Z,14.12
2018-07-12T05:22:54.168Z,14.29
2018-07-12T05:25:21.384Z,14.44
2018-07-12T05:27:48.582Z,14.31
2018-07-12T05:30:15.827Z,14.42
2018-07-12T05:32:43.019Z,14.48
2018-07-12T05:35:10.243Z,14.48
2018-07-12T05:37:38.611Z,14.54
2018-07-12T05:40:07.238Z,14.72
2018-07-12T05:42:41.896Z,14.74
2018-07-12T05:45:10.194Z,15.08
2018-07-12T05:47:38.588Z,14.97
2018-07-12T05:50:06.966Z,15.09
2018-07-12T05:52:35.234Z,15.13
2018-07-12T05:55:03.583Z,15.18
2018-07-12T05:57:31.979Z,15.16
2018-07-12T06:00:01.040Z,14.99
2018-07-12T06:02:29.318Z,15.15
2018-07-12T06:04:57.760Z,15.43
2018-07-12T06:07:30.284Z,15.46
2018-07-12T06:09:58.676Z,15.59
2018-07-12T06:12:27.134Z,15.34
2018-07-12T06:14:55.625Z,15.24
2018-07-12T06:17:24.001Z,15.39
2018-07-12T06:19:52.439Z,15.26
2018-07-12T06:22:20.806Z,15.20
2018-07-12T06:24:49.228Z,15.11
2018-07-12T06:27:17.647Z,15.08
2018-07-12T06:29:45.992Z,15.10
2018-07-12T06:32:16.825Z,15.13
2018-07-12T06:34:45.190Z,15.17
2018-07-12T06:37:13.538Z,15.52
2018-07-12T06:39:41.807Z,15.67
2018-07-12T06:42:10.091Z,15.67
2018-07-12T06:44:38.505Z,15.77
2018-07-12T06:47:06.917Z,15.64
2018-07-12T06:49:35.484Z,15.67
2018-07-12T06:52:03.877Z,15.89
2018-07-12T06:54:32.229Z,15.98
2018-07-12T06:57:00.507Z,15.94
2018-07-12T06:59:28.940Z,16.14
2018-07-12T07:01:57.222Z,15.88
2018-07-12T07:04:25.700Z,16.08
2018-07-12T07:06:53.980Z,16.08
2018-07-12T07:09:22.378Z,16.09
2018-07-12T07:11:50.896Z,16.20
2018-07-12T07:14:19.334Z,16.30
2018-07-12T07:16:47.654Z,16.29
2018-07-12T07:19:15.967Z,16.33
2018-07-12T07:21:44.259Z,16.40
2018-07-12T07:24:12.603Z,16.28
2018-07-12T07:26:40.950Z,16.43
2018-07-12T07:29:09.289Z,16.25
2018-07-12T07:31:37.559Z,16.29
2018-07-12T07:34:05.874Z,16.33
2018-07-12T07:36:34.207Z,16.38
2018-07-12T07:39:02.521Z,16.33
2018-07-12T07:41:30.882Z,16.27
2018-07-12T07:43:59.158Z,16.35
2018-07-12T07:46:27.470Z,16.43
2018-07-12T07:48:55.747Z,16.48
2018-07-12T07:51:24.155Z,16.42
2018-07-12T07:53:52.435Z,16.52
2018-07-12T07:56:20.796Z,16.35
2018-07-12T07:58:49.077Z,16.40
2018-07-12T08:01:17.478Z,16.68
2018-07-12T08:03:45.796Z,16.89
2018-07-12T08:06:14.174Z,17.08
2018-07-12T08:08:42.511Z,17.30
2018-07-12T08:11:10.903Z,17.59
2018-07-12T08:13:39.203Z,17.64
2018-07-12T08:16:07.576Z,17.87
2018-07-12T08:18:35.810Z,17.68
2018-07-12T08:21:06.059Z,17.74
2018-07-12T08:23:34.372Z,17.57
2018-07-12T08:26:02.705Z,17.68
2018-07-12T08:28:31.100Z,17.85
2018-07-12T08:30:59.403Z,17.61
2018-07-12T08:33:27.761Z,17.59
2018-07-12T08:35:56.017Z,17.62
2018-07-12T08:38:24.297Z,17.71
2018-07-12T08:40:52.739Z,17.88
2018-07-12T08:43:21.084Z,17.80
2018-07-12T08:45:49.370Z,17.64
2018-07-12T08:48:17.699Z,17.37
2018-07-12T08:50:46.035Z,17.52
2018-07-12T08:53:14.436Z,17.89
2018-07-12T08:55:43.808Z,18.12
2018-07-12T08:58:12.171Z,18.42
2018-07-12T09:00:42.242Z,18.57
2018-07-12T09:03:13.226Z,18.36
2018-07-12T09:05:41.770Z,18.43
2018-07-12T09:08:10.190Z,18.42
2018-07-12T09:10:38.471Z,18.54
2018-07-12T09:13:06.907Z,18.43
2018-07-12T09:15:35.310Z,18.33
2018-07-12T09:18:03.618Z,18.34
2018-07-12T09:20:31.967Z,18.68
2018-07-12T09:23:00.337Z,18.57
2018-07-12T09:25:29.483Z,18.74
2018-07-12T09:27:57.791Z,18.65
2018-07-12T09:30:26.155Z,18.55
2018-07-12T09:32:54.526Z,18.69
2018-07-12T09:35:22.915Z,18.88
2018-07-12T09:37:51.399Z,19.16
2018-07-12T09:40:19.678Z,19.11
2018-07-12T09:42:47.987Z,19.27
2018-07-12T09:45:16.335Z,18.78
2018-07-12T09:47:44.740Z,18.74
2018-07-12T09:50:13.067Z,19.06
2018-07-12T09:52:41.382Z,19.29
2018-07-12T09:55:09.662Z,19.39
2018-07-12T09:57:49.405Z,19.63
2018-07-12T10:00:17.690Z,19.67
2018-07-12T10:02:51.413Z,19.70
2018-07-12T10:05:25.032Z,19.91
2018-07-12T10:07:58.937Z,20.13
2018-07-12T10:10:30.122Z,19.79
2018-07-12T10:13:03.747Z,19.64
2018-07-12T10:15:37.455Z,19.96
2018-07-12T10:18:11.035Z,19.75
2018-07-12T10:23:06.674Z,19.89
2018-07-12T10:25:34.960Z,19.88
2018-07-12T10:28:03.320Z,20.23
2018-07-12T10:30:31.649Z,20.18
2018-07-12T10:32:59.947Z,20.80
2018-07-12T10:35:28.233Z,20.79
2018-07-12T10:37:56.838Z,20.61
2018-07-12T10:40:25.100Z,19.79
2018-07-12T10:42:53.404Z,20.53
2018-07-12T10:45:21.939Z,20.47
2018-07-12T10:47:50.245Z,20.53
2018-07-12T10:50:18.682Z,20.91
2018-07-12T10:52:47.034Z,21.31
2018-07-12T10:55:15.308Z,21.18
2018-07-12T10:57:43.651Z,20.45
2018-07-12T11:00:12.074Z,20.59
2018-07-12T11:02:40.372Z,20.52
2018-07-12T11:05:08.714Z,20.53
2018-07-12T11:07:37.023Z,20.53
2018-07-12T11:10:05.501Z,20.46
2018-07-12T11:12:34.175Z,20.20
2018-07-12T11:15:02.456Z,20.44
2018-07-12T11:17:30.936Z,20.57
2018-07-12T11:19:59.772Z,20.83
2018-07-12T11:22:28.266Z,21.16
2018-07-12T11:24:56.558Z,21.63
2018-07-12T11:27:26.132Z,21.24
2018-07-12T11:29:56.678Z,21.37
2018-07-12T11:32:25.030Z,21.44
2018-07-12T11:34:53.332Z,21.50
2018-07-12T11:37:24.937Z,21.57
2018-07-12T11:39:53.384Z,21.47
2018-07-12T11:42:21.711Z,21.08
2018-07-12T11:44:50.311Z,21.23
2018-07-12T11:47:19.038Z,21.51
2018-07-12T11:49:47.485Z,21.47
2018-07-12T11:52:15.888Z,21.85
2018-07-12T11:54:44.147Z,22.10
2018-07-12T11:57:13.247Z,22.50
2018-07-12T11:59:41.539Z,22.35
2018-07-12T12:02:09.869Z,22.43
2018-07-12T12:04:38.217Z,22.43
2018-07-12T12:07:06.543Z,22.32
2018-07-12T12:09:35.145Z,21.99
2018-07-12T12:12:03.575Z,21.90
2018-07-12T12:14:32.143Z,21.87
2018-07-12T12:17:00.605Z,21.92
2018-07-12T12:19:29.103Z,22.32
2018-07-12T12:21:59.075Z,22.42
2018-07-12T12:24:27.419Z,23.22
2018-07-12T12:26:55.790Z,23.11
2018-07-12T12:29:24.279Z,23.04
2018-07-12T12:31:52.619Z,22.95
2018-07-12T12:34:20.965Z,22.83
2018-07-12T12:36:49.252Z,22.60
2018-07-12T12:39:17.571Z,22.21
2018-07-12T12:41:45.957Z,22.10
2018-07-12T12:44:14.271Z,22.31
2018-07-12T12:46:42.641Z,22.40
2018-07-12T12:49:11.141Z,22.83
2018-07-12T12:51:39.713Z,22.93
2018-07-12T12:54:08.104Z,22.75
2018-07-12T12:56:36.763Z,22.99
2018-07-12T12:59:05.126Z,23.19
2018-07-12T13:01:33.446Z,23.02
2018-07-12T13:04:01.775Z,23.08
2018-07-12T13:06:30.079Z,23.01
2018-07-12T13:08:58.508Z,23.33
2018-07-12T13:11:26.808Z,22.87
2018-07-12T13:13:55.146Z,22.83
2018-07-12T13:16:23.478Z,22.55
2018-07-12T13:18:51.766Z,22.61
2018-07-12T13:21:20.126Z,22.96
2018-07-12T13:23:48.446Z,23.44
2018-07-12T13:26:16.786Z,23.54
2018-07-12T13:28:45.075Z,23.82
2018-07-12T13:31:13.438Z,23.45
2018-07-12T13:33:41.730Z,23.08
2018-07-12T13:36:10.000Z,23.00
2018-07-12T13:38:38.511Z,22.92
2018-07-12T13:41:07.198Z,22.98
2018-07-12T13:43:35.602Z,23.25
2018-07-12T13:46:03.904Z,23.54
2018-07-12T13:48:32.295Z,23.64
2018-07-12T13:51:00.639Z,23.49
2018-07-12T13:53:29.037Z,22.87
2018-07-12T13:55:57.384Z,22.58
2018-07-12T13:58:25.711Z,22.36
2018-07-12T14:00:54.054Z,22.39
2018-07-12T14:03:22.354Z,22.09
2018-07-12T14:05:50.650Z,21.93
2018-07-12T14:08:18.959Z,21.03
2018-07-12T14:10:47.379Z,21.21
2018-07-12T14:13:15.663Z,21.09
2018-07-12T14:15:44.046Z,21.05
2018-07-12T14:18:12.822Z,20.88
2018-07-12T14:20:42.923Z,20.81
2018-07-12T14:23:11.687Z,20.83
2018-07-12T14:25:40.004Z,20.72
2018-07-12T14:28:08.450Z,20.65
2018-07-12T14:30:38.817Z,20.53
2018-07-12T14:33:10.815Z,20.37
2018-07-12T14:35:39.404Z,20.23
2018-07-12T14:38:08.850Z,20.26
2018-07-12T14:40:37.586Z,20.34
2018-07-12T14:43:06.007Z,20.40
2018-07-12T14:45:34.364Z,20.08
2018-07-12T14:48:02.677Z,19.96
2018-07-12T14:50:31.054Z,20.01
2018-07-12T14:52:59.314Z,19.97
2018-07-12T14:55:27.729Z,19.89
2018-07-12T14:57:56.108Z,20.05
2018-07-12T15:00:24.531Z,20.17
2018-07-12T15:02:52.916Z,20.06
2018-07-12T15:05:21.251Z,19.65
2018-07-12T15:07:49.638Z,19.39
2018-07-12T15:10:18.011Z,19.38
2018-07-12T15:12:46.321Z,19.28
2018-07-12T15:15:14.652Z,19.21
2018-07-12T15:17:42.911Z,19.01
2018-07-12T15:20:11.254Z,19.19
2018-07-12T15:22:39.770Z,19.14
2018-07-12T15:25:08.166Z,19.22
2018-07-12T15:27:36.445Z,19.27
2018-07-12T15:30:04.814Z,19.29
2018-07-12T15:32:33.111Z,19.04
2018-07-12T15:35:01.424Z,19.13
2018-07-12T15:37:29.727Z,19.12
2018-07-12T15:39:58.044Z,18.99
2018-07-12T15:42:26.379Z,18.85
2018-07-12T15:44:54.684Z,18.79
2018-07-12T15:47:22.997Z,18.90
2018-07-12T15:49:51.406Z,18.85
2018-07-12T15:52:21.815Z,18.92
2018-07-12T15:54:50.268Z,18.88
2018-07-12T15:57:18.909Z,18.90
2018-07-12T15:59:47.265Z,18.83
2018-07-12T16:02:15.770Z,18.99
2018-07-12T16:04:44.124Z,19.15
2018-07-12T16:07:12.565Z,19.12
2018-07-12T16:09:40.936Z,18.96
2018-07-12T16:12:09.275Z,18.75
2018-07-12T16:14:38.239Z,18.76
2018-07-12T16:17:06.936Z,18.77
2018-07-12T16:19:35.250Z,19.01
2018-07-12T16:22:04.075Z,18.90
2018-07-12T16:24:32.422Z,18.88
2018-07-12T16:27:00.947Z,18.94
2018-07-12T16:29:29.314Z,19.01
2018-07-12T16:31:57.819Z,18.60
2018-07-12T16:34:26.174Z,18.66
2018-07-12T16:36:54.487Z,18.69
2018-07-12T16:39:22.809Z,18.70
2018-07-12T16:41:51.311Z,18.88
2018-07-12T16:44:19.815Z,18.94
2018-07-12T16:46:48.204Z,18.80
2018-07-12T16:49:22.766Z,18.54
2018-07-12T16:51:51.087Z,18.35
2018-07-12T16:54:19.674Z,18.40
2018-07-12T16:56:47.985Z,18.42
2018-07-12T16:59:16.396Z,18.45
2018-07-12T17:01:44.846Z,18.20
2018-07-12T17:04:13.155Z,18.03
2018-07-12T17:06:41.470Z,17.90
2018-07-12T17:09:09.746Z,17.82
2018-07-12T17:11:38.247Z,17.93
2018-07-12T17:14:06.637Z,18.01
2018-07-12T17:16:34.928Z,17.98
2018-07-12T17:19:03.259Z,18.18
2018-07-12T17:21:32.655Z,18.24
2018-07-12T17:24:00.932Z,18.42
2018-07-12T17:26:29.820Z,18.29
2018-07-12T17:28:59.126Z,18.39
2018-07-12T17:31:27.487Z,18.30
2018-07-12T17:33:55.842Z,18.53
2018-07-12T17:36:24.290Z,18.54
2018-07-12T17:38:52.628Z,18.75
2018-07-12T17:41:20.947Z,18.80
2018-07-12T17:43:49.496Z,18.85
2018-07-12T17:46:17.923Z,18.94
2018-07-12T17:48:46.424Z,18.63
2018-07-12T17:51:14.840Z,18.62
2018-07-12T17:53:43.402Z,18.77
2018-07-12T17:56:11.729Z,18.84
2018-07-12T17:58:40.100Z,18.98
2018-07-12T18:01:08.600Z,19.27
2018-07-12T18:03:36.959Z,19.13
2018-07-12T18:06:05.255Z,18.92
2018-07-12T18:08:33.663Z,19.06
2018-07-12T18:11:02.321Z,18.84
2018-07-12T18:13:30.821Z,18.88
2018-07-12T18:15:59.425Z,18.66
2018-07-12T18:18:28.029Z,18.59
2018-07-12T18:20:56.483Z,18.58
2018-07-12T18:23:24.853Z,18.29
2018-07-12T18:25:58.918Z,18.27
2018-07-12T18:28:27.844Z,18.43
2018-07-12T18:30:56.928Z,18.28
2018-07-12T18:33:25.284Z,18.92
2018-07-12T18:35:53.757Z,18.84
2018-07-12T18:38:22.237Z,18.54
2018-07-12T18:40:50.539Z,18.56
2018-07-12T18:43:18.939Z,18.53
2018-07-12T18:45:47.482Z,18.24
2018-07-12T18:48:15.774Z,18.01
2018-07-12T18:50:44.074Z,17.83
2018-07-12T18:53:12.795Z,17.72
2018-07-12T18:55:41.095Z,17.71
2018-07-12T18:58:09.786Z,17.60
2018-07-12T19:00:38.340Z,17.45
2018-07-12T19:03:06.686Z,17.54
2018-07-12T19:05:35.281Z,17.58
2018-07-12T19:08:03.771Z,17.41
2018-07-12T19:10:32.122Z,17.38
2018-07-12T19:13:00.518Z,17.31
2018-07-12T19:15:29.172Z,17.17
2018-07-12T19:17:57.830Z,17.16
2018-07-12T19:20:26.178Z,17.06
2018-07-12T19:22:54.532Z,17.11
2018-07-12T19:25:22.854Z,17.02
2018-07-12T19:27:51.534Z,17.00
2018-07-12T19:30:19.948Z,16.93
2018-07-12T19:32:48.263Z,16.91
2018-07-12T19:35:16.569Z,16.83
2018-07-12T19:37:45.553Z,16.86
2018-07-12T19:40:13.937Z,16.97
2018-07-12T19:42:42.199Z,16.98
2018-07-12T19:45:10.505Z,16.99
2018-07-12T19:47:38.788Z,17.04
2018-07-12T19:50:07.166Z,16.77
2018-07-12T19:52:35.462Z,16.91
2018-07-12T19:55:03.905Z,16.81
2018-07-12T19:57:32.202Z,16.89
2018-07-12T20:00:00.505Z,16.78
2018-07-12T20:02:28.810Z,16.74
2018-07-12T20:04:57.138Z,16.77
2018-07-12T20:07:25.568Z,16.75
2018-07-12T20:09:53.913Z,16.77
2018-07-12T20:12:22.373Z,16.84
2018-07-12T20:14:50.755Z,16.83
2018-07-12T20:17:19.031Z,16.67
2018-07-12T20:19:48.543Z,16.59
2018-07-12T20:22:16.983Z,16.66
2018-07-12T20:24:45.491Z,16.67
2018-07-12T20:27:16.100Z,16.63
2018-07-12T20:29:44.498Z,16.68
2018-07-12T20:32:12.770Z,16.72
2018-07-12T20:34:41.183Z,16.60
2018-07-12T20:37:09.475Z,16.54
2018-07-12T20:39:38.012Z,16.53
2018-07-12T20:42:06.428Z,16.59
2018-07-12T20:44:34.762Z,16.62
2018-07-12T20:47:03.106Z,16.58
2018-07-12T20:49:31.986Z,16.63
2018-07-12T20:52:00.271Z,16.66
2018-07-12T20:54:28.646Z,16.82
2018-07-12T20:56:56.943Z,16.78
2018-07-12T20:59:25.471Z,16.73
2018-07-12T21:01:53.751Z,16.70
2018-07-12T21:04:22.055Z,16.65
2018-07-12T21:06:50.356Z,16.79
2018-07-12T21:09:18.774Z,16.77
2018-07-12T21:11:47.050Z,16.77
2018-07-12T21:14:15.490Z,16.85
2018-07-12T21:16:43.777Z,16.78
2018-07-12T21:19:12.090Z,16.93
2018-07-12T21:21:40.380Z,16.71
2018-07-12T21:24:08.674Z,16.81
2018-07-12T21:26:36.979Z,16.73
2018-07-12T21:29:05.343Z,16.81
2018-07-12T21:31:33.966Z,16.79
2018-07-12T21:34:02.359Z,16.74
2018-07-12T21:36:30.723Z,16.84
2018-07-12T21:38:59.087Z,16.80
2018-07-12T21:41:27.489Z,16.85
2018-07-12T21:43:55.812Z,16.71
2018-07-12T21:46:24.107Z,16.78
2018-07-12T21:48:52.387Z,16.78
2018-07-12T21:51:20.763Z,16.77
2018-07-12T21:53:49.113Z,16.74
2018-07-12T21:56:17.447Z,16.73
2018-07-12T21:58:45.707Z,16.73
2018-07-12T22:01:14.107Z,16.73
2018-07-12T22:03:42.378Z,16.74
2018-07-12T22:06:10.699Z,16.69
2018-07-12T22:08:39.002Z,16.58
2018-07-12T22:11:07.445Z,16.43
2018-07-12T22:13:36.978Z,16.55
2018-07-12T22:16:05.330Z,16.64
2018-07-12T22:18:33.605Z,16.69
2018-07-12T22:21:02.013Z,16.71
2018-07-12T22:23:30.338Z,16.72
2018-07-12T22:25:58.986Z,16.69
2018-07-12T22:28:27.337Z,16.53
2018-07-12T22:30:55.636Z,16.57
2018-07-12T22:33:23.944Z,16.53
2018-07-12T22:35:52.327Z,16.55
2018-07-12T22:38:20.593Z,16.55
2018-07-12T22:40:48.890Z,16.43
2018-07-12T22:43:17.166Z,16.40
2018-07-12T22:45:45.707Z,16.51
2018-07-12T22:48:14.108Z,16.33
2018-07-12T22:50:42.382Z,16.39
2018-07-12T22:53:10.720Z,16.31
2018-07-12T22:55:40.414Z,16.22
2018-07-12T22:58:08.807Z,16.25
2018-07-12T23:00:37.130Z,16.21
2018-07-12T23:03:05.525Z,16.18
2018-07-12T23:05:34.598Z,16.09
2018-07-12T23:08:02.962Z,16.11
2018-07-12T23:10:31.359Z,16.09
2018-07-12T23:13:00.151Z,16.10
2018-07-12T23:15:28.474Z,16.01
2018-07-12T23:17:56.787Z,16.02
2018-07-12T23:20:25.125Z,15.93
2018-07-12T23:22:53.754Z,15.91
2018-07-12T23:25:22.144Z,15.95
2018-07-12T23:27:50.456Z,16.04
2018-07-12T23:30:18.795Z,15.93
2018-07-12T23:32:47.118Z,16.04
2018-07-12T23:35:15.435Z,15.89
2018-07-12T23:37:43.775Z,15.99
2018-07-12T23:40:12.074Z,15.90
2018-07-12T23:42:40.417Z,15.99
2018-07-12T23:45:08.739Z,15.84
2018-07-12T23:47:37.070Z,15.89
2018-07-12T23:50:05.387Z,15.90
2018-07-12T23:52:33.779Z,15.90
2018-07-12T23:55:02.064Z,15.98
2018-07-12T23:57:30.561Z,15.82
2018-07-12T23:59:58.871Z,15.76
